createdAt,value
2023-02-04T00:01:48.986Z,21.40
2023-02-04T00:04:16.254Z,21.36
2023-02-04T00:06:44.921Z,21.39
2023-02-04T00:09:12.304Z,21.34
2023-02-04T00:11:39.334Z,21.32
2023-02-04T00:14:07.173Z,21.33
2023-02-04T00:16:34.013Z,21.28
2023-02-04T00:19:00.950Z,21.27
2023-02-04T00:21:27.987Z,21.27
2023-02-04T00:23:56.614Z,21.26
2023-02-04T00:26:23.427Z,21.20
2023-02-04T00:28:51.304Z,21.21
2023-02-04T00:31:18.089Z,21.24
2023-02-04T00:33:45.999Z,21.20
2023-02-04T00:36:15.726Z,21.18
2023-02-04T00:38:42.935Z,21.18
2023-02-04T00:41:09.690Z,21.19
2023-02-04T00:43:37.767Z,21.17
2023-02-04T00:46:04.811Z,21.16
2023-02-04T00:48:31.594Z,21.17
2023-02-04T00:50:58.453Z,21.12
2023-02-04T00:53:25.275Z,21.12
2023-02-04T00:55:51.984Z,21.11
2023-02-04T00:58:18.845Z,21.08
2023-02-04T01:00:45.613Z,21.10
2023-02-04T01:03:12.537Z,21.07
2023-02-04T01:05:40.813Z,21.05
2023-02-04T01:08:07.643Z,21.05
2023-02-04T01:10:34.349Z,21.05
2023-02-04T01:13:02.374Z,21.02
2023-02-04T01:15:29.182Z,21.01
2023-02-04T01:17:59.366Z,20.99
2023-02-04T01:20:26.386Z,20.98
2023-02-04T01:22:53.411Z,20.97
2023-02-04T01:25:20.431Z,20.97
2023-02-04T01:27:47.431Z,20.92
2023-02-04T01:30:15.168Z,20.92
2023-02-04T01:32:42.042Z,20.88
2023-02-04T01:35:09.536Z,20.88
2023-02-04T01:37:36.735Z,20.86
2023-02-04T01:40:03.947Z,20.83
2023-02-04T01:42:31.742Z,20.82
2023-02-04T01:44:58.787Z,20.83
2023-02-04T01:47:26.897Z,20.81
2023-02-04T01:49:55.117Z,20.78
2023-02-04T01:52:22.869Z,20.78
2023-02-04T01:54:49.927Z,20.80
2023-02-04T01:57:17.101Z,20.76
2023-02-04T01:59:45.476Z,20.75
2023-02-04T02:02:15.701Z,20.74
2023-02-04T02:04:42.742Z,20.75
2023-02-04T02:07:12.161Z,20.73
2023-02-04T02:09:39.625Z,20.70
2023-02-04T02:12:06.801Z,20.68
2023-02-04T02:14:33.752Z,20.67
2023-02-04T02:17:00.849Z,20.66
2023-02-04T02:19:33.037Z,20.63
2023-02-04T02:22:06.335Z,20.60
2023-02-04T02:24:36.428Z,20.62
2023-02-04T02:27:05.796Z,20.62
2023-02-04T02:29:33.065Z,20.59
2023-02-04T02:32:00.023Z,20.57
2023-02-04T02:34:27.691Z,20.56
2023-02-04T02:36:54.731Z,20.55
2023-02-04T02:39:21.950Z,20.55
2023-02-04T02:41:48.836Z,20.54
2023-02-04T02:44:16.633Z,20.52
2023-02-04T02:46:43.829Z,20.51
2023-02-04T02:49:16.638Z,20.48
2023-02-04T02:51:43.530Z,20.50
2023-02-04T02:54:13.307Z,20.48
2023-02-04T02:56:39.971Z,20.47
2023-02-04T02:59:13.149Z,20.46
2023-02-04T03:01:39.892Z,20.44
2023-02-04T03:04:06.924Z,20.42
2023-02-04T03:06:34.734Z,20.42
2023-02-04T03:09:01.638Z,20.40
2023-02-04T03:11:30.538Z,20.40
2023-02-04T03:13:58.684Z,20.38
2023-02-04T03:16:25.442Z,20.39
2023-02-04T03:18:52.330Z,20.36
2023-02-04T03:21:19.139Z,20.35
2023-02-04T03:23:45.936Z,20.35
2023-02-04T03:26:13.121Z,20.33
2023-02-04T03:28:41.312Z,20.31
2023-02-04T03:31:08.124Z,20.30
2023-02-04T03:33:36.260Z,20.31
2023-02-04T03:36:03.436Z,20.28
2023-02-04T03:38:30.625Z,20.30
2023-02-04T03:40:57.673Z,20.25
2023-02-04T03:43:24.339Z,20.26
2023-02-04T03:45:51.107Z,20.26
2023-02-04T03:48:18.834Z,20.25
2023-02-04T03:50:46.016Z,20.22
2023-02-04T03:53:13.893Z,20.22
2023-02-04T03:55:41.329Z,20.22
2023-02-04T03:58:08.024Z,20.20
2023-02-04T04:00:34.805Z,20.21
2023-02-04T04:03:01.903Z,20.16
2023-02-04T04:05:28.964Z,20.17
2023-02-04T04:07:56.328Z,20.17
2023-02-04T04:10:23.333Z,20.16
2023-02-04T04:12:50.592Z,20.16
2023-02-04T04:15:17.882Z,20.15
2023-02-04T04:17:44.690Z,20.15
2023-02-04T04:20:12.895Z,20.10
2023-02-04T04:22:40.424Z,20.12
2023-02-04T04:25:07.987Z,20.10
2023-02-04T04:27:35.498Z,20.11
2023-02-04T04:30:03.459Z,20.08
2023-02-04T04:32:30.487Z,20.11
2023-02-04T04:34:57.842Z,20.09
2023-02-04T04:37:27.825Z,20.09
2023-02-04T04:39:54.864Z,20.06
2023-02-04T04:42:21.651Z,20.04
2023-02-04T04:44:49.172Z,20.06
2023-02-04T04:47:15.944Z,20.05
2023-02-04T04:49:43.136Z,20.04
2023-02-04T04:52:11.042Z,20.02
2023-02-04T04:54:38.262Z,20.01
2023-02-04T04:57:05.139Z,20.01
2023-02-04T04:59:31.826Z,19.97
2023-02-04T05:01:58.546Z,19.93
2023-02-04T05:04:25.337Z,19.96
2023-02-04T05:06:52.045Z,19.95
2023-02-04T05:09:19.048Z,19.93
2023-02-04T05:11:45.907Z,19.91
2023-02-04T05:14:15.047Z,19.96
2023-02-04T05:16:41.878Z,19.92
2023-02-04T05:19:08.616Z,19.92
2023-02-04T05:21:35.454Z,19.90
2023-02-04T05:24:02.489Z,19.90
2023-02-04T05:26:31.194Z,19.88
2023-02-04T05:29:00.619Z,19.89
2023-02-04T05:31:28.618Z,19.88
2023-02-04T05:33:55.633Z,19.84
2023-02-04T05:36:23.478Z,19.87
2023-02-04T05:38:50.467Z,19.84
2023-02-04T05:41:17.287Z,19.86
2023-02-04T05:43:44.247Z,19.83
2023-02-04T05:46:11.035Z,19.80
2023-02-04T05:48:37.976Z,19.80
2023-02-04T05:51:05.460Z,19.80
2023-02-04T05:53:32.963Z,19.79
2023-02-04T05:56:00.577Z,19.78
2023-02-04T05:58:33.990Z,19.81
2023-02-04T06:01:01.711Z,19.79
2023-02-04T06:03:30.034Z,19.77
2023-02-04T06:05:57.577Z,19.77
2023-02-04T06:08:24.574Z,19.80
2023-02-04T06:10:51.688Z,19.73
2023-02-04T06:13:18.775Z,19.75
2023-02-04T06:15:45.515Z,19.72
2023-02-04T06:18:13.096Z,19.72
2023-02-04T06:20:39.857Z,19.73
2023-02-04T06:23:06.800Z,19.69
2023-02-04T06:25:33.680Z,19.68
2023-02-04T06:28:00.843Z,19.69
2023-02-04T06:30:27.672Z,19.68
2023-02-04T06:32:54.455Z,19.69
2023-02-04T06:35:21.284Z,19.70
2023-02-04T06:37:50.485Z,19.68
2023-02-04T06:40:17.988Z,19.66
2023-02-04T06:42:44.895Z,19.67
2023-02-04T06:45:11.625Z,19.67
2023-02-04T06:47:38.526Z,19.67
2023-02-04T06:50:06.402Z,19.65
2023-02-04T06:52:33.554Z,19.65
2023-02-04T06:55:00.630Z,19.63
2023-02-04T06:57:28.188Z,19.62
2023-02-04T06:59:55.084Z,19.64
2023-02-04T07:02:21.906Z,19.64
2023-02-04T07:04:49.546Z,19.61
2023-02-04T07:07:16.516Z,19.63
2023-02-04T07:09:43.315Z,19.64
2023-02-04T07:12:10.076Z,19.61
2023-02-04T07:14:36.926Z,19.61
2023-02-04T07:17:04.184Z,19.61
2023-02-04T07:19:30.876Z,19.57
2023-02-04T07:21:57.731Z,19.60
2023-02-04T07:24:25.290Z,19.60
2023-02-04T07:26:54.586Z,19.61
2023-02-04T07:29:25.625Z,19.66
2023-02-04T07:31:53.344Z,19.70
2023-02-04T07:34:20.598Z,19.72
2023-02-04T07:36:47.676Z,19.77
2023-02-04T07:39:14.723Z,19.80
2023-02-04T07:41:41.566Z,19.85
2023-02-04T07:44:08.357Z,19.89
2023-02-04T07:46:35.171Z,19.93
2023-02-04T07:49:02.517Z,20.00
2023-02-04T07:51:29.730Z,20.04
2023-02-04T07:53:59.489Z,20.10
2023-02-04T07:56:26.698Z,20.15
2023-02-04T07:58:55.768Z,20.21
2023-02-04T08:01:22.890Z,20.26
2023-02-04T08:03:49.836Z,20.34
2023-02-04T08:06:16.642Z,20.39
2023-02-04T08:08:45.134Z,20.45
2023-02-04T08:11:11.878Z,20.51
2023-02-04T08:13:38.630Z,20.55
2023-02-04T08:16:05.832Z,20.61
2023-02-04T08:18:34.888Z,20.65
2023-02-04T08:21:02.378Z,20.70
2023-02-04T08:23:29.157Z,20.74
2023-02-04T08:25:56.168Z,20.78
2023-02-04T08:28:23.012Z,20.80
2023-02-04T08:30:50.219Z,20.84
2023-02-04T08:33:17.287Z,20.88
2023-02-04T08:35:44.547Z,20.90
2023-02-04T08:38:11.320Z,20.92
2023-02-04T08:40:38.274Z,20.96
2023-02-04T08:43:06.140Z,21.00
2023-02-04T08:45:32.960Z,21.02
2023-02-04T08:47:59.812Z,21.05
2023-02-04T08:50:27.306Z,21.07
2023-02-04T08:52:54.598Z,21.07
2023-02-04T08:55:22.529Z,21.09
2023-02-04T08:57:49.359Z,21.11
2023-02-04T09:00:17.467Z,21.12
2023-02-04T09:02:44.234Z,21.12
2023-02-04T09:05:11.269Z,21.12
2023-02-04T09:07:38.052Z,21.12
2023-02-04T09:10:05.014Z,21.13
2023-02-04T09:12:32.752Z,21.13
2023-02-04T09:14:59.473Z,21.11
2023-02-04T09:17:27.311Z,21.13
2023-02-04T09:19:54.029Z,21.12
2023-02-04T09:22:20.886Z,21.11
2023-02-04T09:24:47.686Z,21.08
2023-02-04T09:27:14.732Z,21.08
2023-02-04T09:29:41.534Z,21.07
2023-02-04T09:32:08.608Z,21.04
2023-02-04T09:34:35.534Z,21.06
2023-02-04T09:37:02.849Z,21.02
2023-02-04T09:39:29.826Z,21.00
2023-02-04T09:41:57.217Z,20.96
2023-02-04T09:44:26.014Z,20.95
2023-02-04T09:46:54.214Z,20.93
2023-02-04T09:49:21.035Z,20.92
2023-02-04T09:51:49.067Z,20.87
2023-02-04T09:54:17.498Z,20.84
2023-02-04T09:56:44.584Z,20.82
2023-02-04T09:59:13.204Z,20.80
2023-02-04T10:01:40.587Z,20.72
2023-02-04T10:04:10.578Z,20.68
2023-02-04T10:06:38.687Z,20.65
2023-02-04T10:09:05.630Z,20.66
2023-02-04T10:11:34.819Z,20.66
2023-02-04T10:14:01.611Z,20.64
2023-02-04T10:16:32.873Z,20.63
2023-02-04T10:19:02.133Z,20.59
2023-02-04T10:21:30.731Z,20.60
2023-02-04T10:23:58.245Z,20.56
2023-02-04T10:26:28.788Z,20.58
2023-02-04T10:28:59.033Z,20.50
2023-02-04T10:31:28.525Z,20.09
2023-02-04T10:33:58.661Z,19.82
2023-02-04T10:36:25.544Z,19.60
2023-02-04T10:38:55.640Z,19.40
2023-02-04T10:41:24.699Z,19.34
2023-02-04T10:43:55.817Z,19.21
2023-02-04T10:46:24.062Z,19.00
2023-02-04T10:48:52.540Z,18.88
2023-02-04T10:51:19.334Z,18.78
2023-02-04T10:53:49.678Z,18.79
2023-02-04T10:56:18.220Z,18.69
2023-02-04T10:58:46.244Z,18.58
2023-02-04T11:01:13.946Z,18.49
2023-02-04T11:03:41.440Z,18.38
2023-02-04T11:06:11.681Z,18.31
2023-02-04T11:08:39.089Z,18.20
2023-02-04T11:11:08.302Z,18.17
2023-02-04T11:13:39.123Z,18.15
2023-02-04T11:16:09.229Z,17.91
2023-02-04T11:18:40.032Z,17.88
2023-02-04T11:21:14.820Z,18.11
2023-02-04T11:23:42.125Z,18.28
2023-02-04T11:26:09.223Z,18.40
2023-02-04T11:28:39.128Z,18.48
2023-02-04T11:31:13.588Z,18.55
2023-02-04T11:33:42.797Z,18.61
2023-02-04T11:36:13.434Z,18.69
2023-02-04T11:38:48.086Z,18.74
2023-02-04T11:41:16.938Z,18.79
2023-02-04T11:43:44.817Z,18.82
2023-02-04T11:46:14.263Z,18.86
2023-02-04T11:48:41.866Z,18.87
2023-02-04T11:51:12.614Z,18.92
2023-02-04T11:53:40.175Z,18.92
2023-02-04T11:56:08.041Z,18.96
2023-02-04T11:58:39.309Z,18.95
2023-02-04T12:01:08.944Z,18.94
2023-02-04T12:03:46.018Z,18.97
2023-02-04T12:06:20.899Z,18.99
2023-02-04T12:08:48.113Z,19.00
2023-02-04T12:11:18.089Z,19.02
2023-02-04T12:13:48.034Z,19.04
2023-02-04T12:16:14.959Z,19.05
2023-02-04T12:18:42.349Z,19.04
2023-02-04T12:21:09.144Z,19.06
2023-02-04T12:23:36.140Z,19.08
2023-02-04T12:26:03.204Z,19.07
2023-02-04T12:28:30.253Z,19.09
2023-02-04T12:30:57.668Z,19.08
2023-02-04T12:33:24.678Z,19.08
2023-02-04T12:35:51.744Z,19.14
2023-02-04T12:38:20.434Z,19.13
2023-02-04T12:40:47.872Z,19.12
2023-02-04T12:43:14.822Z,19.09
2023-02-04T12:45:46.313Z,19.12
2023-02-04T12:48:15.473Z,19.13
2023-02-04T12:50:42.754Z,19.08
2023-02-04T12:53:09.818Z,19.14
2023-02-04T12:55:36.743Z,19.10
2023-02-04T12:58:04.002Z,19.10
2023-02-04T13:00:31.380Z,19.12
2023-02-04T13:03:00.024Z,19.14
2023-02-04T13:05:29.702Z,19.12
2023-02-04T13:07:57.361Z,19.16
2023-02-04T13:10:24.835Z,19.12
2023-02-04T13:12:51.770Z,19.15
2023-02-04T13:15:19.286Z,19.15
2023-02-04T13:17:49.280Z,19.15
2023-02-04T13:20:16.568Z,19.14
2023-02-04T13:22:43.679Z,19.13
2023-02-04T13:25:11.896Z,19.14
2023-02-04T13:27:39.997Z,19.15
2023-02-04T13:30:08.713Z,19.13
2023-02-04T13:32:35.494Z,19.13
2023-02-04T13:35:02.884Z,19.08
2023-02-04T13:37:29.675Z,19.10
2023-02-04T13:39:56.546Z,19.10
2023-02-04T13:42:23.415Z,19.10
2023-02-04T13:44:50.698Z,19.11
2023-02-04T13:47:17.684Z,19.10
2023-02-04T13:49:44.569Z,19.09
2023-02-04T13:52:11.663Z,19.06
2023-02-04T13:54:38.470Z,19.07
2023-02-04T13:57:05.896Z,19.11
2023-02-04T13:59:32.724Z,19.09
2023-02-04T14:01:59.708Z,19.08
2023-02-04T14:04:27.466Z,19.06
2023-02-04T14:06:55.606Z,19.05
2023-02-04T14:09:23.145Z,19.06
2023-02-04T14:11:50.034Z,19.00
2023-02-04T14:14:20.531Z,19.03
2023-02-04T14:16:47.822Z,19.05
2023-02-04T14:19:15.698Z,19.04
2023-02-04T14:21:42.943Z,19.00
2023-02-04T14:24:09.821Z,19.01
2023-02-04T14:26:36.715Z,19.01
2023-02-04T14:29:04.716Z,18.98
2023-02-04T14:31:32.097Z,18.98
2023-02-04T14:33:59.525Z,18.95
2023-02-04T14:36:26.626Z,19.00
2023-02-04T14:38:53.713Z,19.03
2023-02-04T14:41:21.706Z,19.06
2023-02-04T14:43:49.012Z,19.12
2023-02-04T14:46:16.437Z,19.15
2023-02-04T14:48:45.775Z,19.18
2023-02-04T14:51:13.318Z,19.20
2023-02-04T14:53:44.091Z,19.26
2023-02-04T14:56:15.983Z,19.30
2023-02-04T14:58:46.508Z,19.35
2023-02-04T15:01:14.839Z,19.40
2023-02-04T15:03:41.741Z,19.44
2023-02-04T15:06:08.685Z,19.47
2023-02-04T15:08:36.394Z,19.51
2023-02-04T15:11:03.141Z,19.54
2023-02-04T15:13:31.015Z,19.58
2023-02-04T15:15:58.053Z,19.60
2023-02-04T15:18:25.129Z,19.63
2023-02-04T15:20:52.878Z,19.65
2023-02-04T15:23:20.704Z,19.68
2023-02-04T15:25:48.897Z,19.70
2023-02-04T15:28:16.277Z,19.72
2023-02-04T15:30:43.883Z,19.74
2023-02-04T15:33:13.171Z,19.76
2023-02-04T15:35:40.273Z,19.78
2023-02-04T15:38:07.198Z,19.80
2023-02-04T15:40:34.462Z,19.82
2023-02-04T15:43:01.557Z,19.85
2023-02-04T15:45:31.414Z,19.84
2023-02-04T15:47:58.688Z,19.85
2023-02-04T15:50:25.484Z,19.88
2023-02-04T15:52:54.579Z,19.88
2023-02-04T15:55:22.277Z,19.90
2023-02-04T15:57:49.578Z,19.91
2023-02-04T16:00:17.613Z,19.93
2023-02-04T16:02:44.949Z,19.92
2023-02-04T16:05:12.247Z,19.91
2023-02-04T16:07:39.820Z,19.90
2023-02-04T16:10:07.247Z,19.93
2023-02-04T16:12:34.233Z,19.92
2023-02-04T16:15:01.828Z,19.92
2023-02-04T16:17:31.030Z,19.92
2023-02-04T16:19:58.346Z,19.91
2023-02-04T16:22:26.339Z,19.90
2023-02-04T16:24:54.407Z,19.90
2023-02-04T16:27:21.302Z,19.89
2023-02-04T16:29:48.064Z,19.90
2023-02-04T16:32:15.798Z,19.90
2023-02-04T16:34:43.042Z,19.89
2023-02-04T16:37:10.739Z,19.87
2023-02-04T16:39:39.496Z,19.86
2023-02-04T16:42:09.024Z,19.83
2023-02-04T16:44:37.551Z,19.88
2023-02-04T16:47:04.989Z,19.82
2023-02-04T16:49:31.954Z,19.83
2023-02-04T16:51:58.721Z,19.80
2023-02-04T16:54:25.850Z,19.80
2023-02-04T16:56:55.678Z,19.80
2023-02-04T16:59:24.241Z,19.77
2023-02-04T17:01:51.115Z,19.77
2023-02-04T17:04:18.038Z,19.75
2023-02-04T17:06:44.860Z,19.81
2023-02-04T17:09:11.650Z,19.87
2023-02-04T17:11:39.005Z,19.81
2023-02-04T17:14:07.322Z,19.80
2023-02-04T17:16:35.655Z,19.79
2023-02-04T17:19:02.842Z,19.73
2023-02-04T17:21:30.876Z,19.73
2023-02-04T17:24:04.541Z,19.71
2023-02-04T17:26:37.404Z,19.71
2023-02-04T17:29:06.023Z,19.67
2023-02-04T17:31:34.045Z,19.64
2023-02-04T17:34:01.251Z,19.65
2023-02-04T17:36:28.484Z,19.63
2023-02-04T17:38:56.771Z,19.63
2023-02-04T17:41:23.715Z,19.61
2023-02-04T17:43:50.911Z,19.60
2023-02-04T17:46:17.905Z,19.58
2023-02-04T17:48:44.840Z,19.57
2023-02-04T17:51:12.975Z,19.58
2023-02-04T17:53:41.491Z,19.55
2023-02-04T17:56:11.800Z,19.51
2023-02-04T17:58:39.060Z,19.52
2023-02-04T18:01:10.611Z,19.49
2023-02-04T18:03:38.136Z,19.50
2023-02-04T18:06:19.972Z,19.46
2023-02-04T18:08:47.103Z,19.46
2023-02-04T18:11:20.082Z,19.42
2023-02-04T18:13:48.903Z,19.42
2023-02-04T18:16:17.196Z,19.40
2023-02-04T18:18:44.630Z,19.38
2023-02-04T18:21:14.867Z,19.37
2023-02-04T18:23:41.824Z,19.35
2023-02-04T18:26:13.114Z,19.33
2023-02-04T18:28:44.805Z,19.34
2023-02-04T18:31:15.621Z,19.30
2023-02-04T18:33:45.327Z,19.28
2023-02-04T18:36:19.001Z,19.26
2023-02-04T18:38:49.157Z,19.26
2023-02-04T18:41:19.158Z,19.27
2023-02-04T18:43:50.861Z,19.25
2023-02-04T18:46:21.368Z,19.25
2023-02-04T18:48:51.358Z,19.25
2023-02-04T18:51:21.777Z,19.24
2023-02-04T18:53:49.680Z,19.25
2023-02-04T18:56:19.557Z,19.32
2023-02-04T18:58:49.491Z,19.37
2023-02-04T19:01:21.544Z,19.37
2023-02-04T19:03:49.352Z,19.38
2023-02-04T19:06:22.737Z,19.40
2023-02-04T19:08:49.649Z,19.42
2023-02-04T19:11:19.465Z,19.45
2023-02-04T19:13:46.832Z,19.46
2023-02-04T19:16:17.025Z,19.48
2023-02-04T19:18:44.399Z,19.48
2023-02-04T19:21:14.234Z,19.51
2023-02-04T19:23:41.340Z,19.52
2023-02-04T19:26:15.808Z,19.50
2023-02-04T19:28:43.144Z,19.51
2023-02-04T19:31:11.451Z,19.52
2023-02-04T19:33:42.338Z,19.51
2023-02-04T19:36:12.769Z,19.52
2023-02-04T19:38:42.245Z,19.53
2023-02-04T19:41:12.595Z,19.54
2023-02-04T19:43:39.569Z,19.53
2023-02-04T19:46:19.347Z,19.55
2023-02-04T19:48:47.657Z,19.57
2023-02-04T19:51:18.057Z,19.56
2023-02-04T19:53:47.216Z,19.56
2023-02-04T19:56:17.804Z,19.57
2023-02-04T19:58:45.236Z,19.57
2023-02-04T20:01:18.094Z,19.56
2023-02-04T20:03:46.118Z,19.56
2023-02-04T20:06:16.501Z,19.56
2023-02-04T20:08:45.893Z,19.55
2023-02-04T20:11:16.803Z,19.56
2023-02-04T20:13:44.012Z,19.52
2023-02-04T20:16:13.934Z,19.52
2023-02-04T20:18:40.861Z,19.53
2023-02-04T20:21:11.241Z,19.50
2023-02-04T20:23:38.916Z,19.50
2023-02-04T20:26:10.194Z,19.50
2023-02-04T20:28:40.538Z,19.48
2023-02-04T20:31:10.664Z,19.48
2023-02-04T20:33:40.805Z,19.46
2023-02-04T20:36:10.702Z,19.45
2023-02-04T20:38:37.693Z,19.45
2023-02-04T20:41:15.080Z,19.45
2023-02-04T20:43:42.950Z,19.43
2023-02-04T20:46:14.755Z,19.44
2023-02-04T20:48:41.986Z,19.44
2023-02-04T20:51:16.150Z,19.42
2023-02-04T20:53:47.295Z,19.41
2023-02-04T20:56:17.120Z,19.41
2023-02-04T20:58:46.166Z,19.40
2023-02-04T21:01:16.169Z,19.39
2023-02-04T21:03:44.337Z,19.38
2023-02-04T21:06:14.664Z,19.37
2023-02-04T21:08:43.292Z,19.36
2023-02-04T21:11:10.836Z,19.36
2023-02-04T21:13:37.668Z,19.42
2023-02-04T21:16:04.775Z,19.45
2023-02-04T21:18:34.643Z,19.48
2023-02-04T21:21:02.888Z,19.52
2023-02-04T21:23:30.101Z,19.56
2023-02-04T21:25:57.460Z,19.59
2023-02-04T21:28:24.381Z,19.63
2023-02-04T21:30:51.318Z,19.66
2023-02-04T21:33:18.915Z,19.69
2023-02-04T21:35:47.561Z,19.73
2023-02-04T21:38:14.856Z,19.76
2023-02-04T21:40:41.838Z,19.78
2023-02-04T21:43:09.095Z,19.81
2023-02-04T21:45:37.812Z,19.84
2023-02-04T21:48:05.975Z,19.85
2023-02-04T21:50:33.396Z,19.88
2023-02-04T21:53:00.322Z,19.89
2023-02-04T21:55:29.275Z,19.91
2023-02-04T21:57:56.685Z,19.92
2023-02-04T22:00:24.069Z,19.94
2023-02-04T22:02:52.373Z,19.96
2023-02-04T22:05:19.465Z,19.97
2023-02-04T22:07:47.445Z,19.96
2023-02-04T22:10:17.261Z,19.97
2023-02-04T22:12:44.862Z,19.99
2023-02-04T22:15:12.058Z,20.02
2023-02-04T22:17:38.915Z,20.03
2023-02-04T22:20:06.187Z,20.04
2023-02-04T22:22:33.380Z,20.05
2023-02-04T22:25:02.705Z,20.03
2023-02-04T22:27:29.472Z,20.03
2023-02-04T22:29:57.543Z,20.04
2023-02-04T22:32:24.459Z,20.02
2023-02-04T22:34:51.254Z,20.00
2023-02-04T22:37:18.056Z,20.00
2023-02-04T22:39:44.945Z,19.98
2023-02-04T22:42:12.821Z,19.99
2023-02-04T22:44:39.515Z,20.00
2023-02-04T22:47:06.338Z,20.02
2023-02-04T22:49:36.842Z,19.99
2023-02-04T22:52:04.032Z,19.98
2023-02-04T22:54:31.311Z,19.99
2023-02-04T22:57:00.646Z,19.98
2023-02-04T22:59:28.230Z,19.97
2023-02-04T23:01:56.216Z,19.98
2023-02-04T23:04:23.339Z,19.95
2023-02-04T23:06:50.857Z,19.96
2023-02-04T23:09:17.998Z,19.92
2023-02-04T23:11:44.981Z,19.91
2023-02-04T23:14:11.875Z,19.89
2023-02-04T23:16:38.902Z,19.88
2023-02-04T23:19:05.713Z,19.88
2023-02-04T23:21:32.805Z,19.88
2023-02-04T23:24:00.074Z,19.84
2023-02-04T23:26:26.876Z,19.83
2023-02-04T23:28:54.204Z,19.80
2023-02-04T23:31:21.039Z,19.81
2023-02-04T23:33:52.169Z,19.80
2023-02-04T23:36:19.351Z,19.80
2023-02-04T23:38:46.399Z,19.78
2023-02-04T23:41:13.355Z,19.74
2023-02-04T23:43:40.116Z,19.76
2023-02-04T23:46:07.138Z,19.73
2023-02-04T23:48:34.056Z,19.72
2023-02-04T23:51:01.563Z,19.73
2023-02-04T23:53:28.773Z,19.72
2023-02-04T23:55:55.426Z,19.70
2023-02-04T23:58:22.325Z,19.68
